createdAt,value
2022-08-28T00:00:25.961Z,2.80
2022-08-28T00:02:53.725Z,2.67
2022-08-28T00:05:24.190Z,2.45
2022-08-28T00:07:51.253Z,2.60
2022-08-28T00:10:20.094Z,2.67
2022-08-28T00:12:50.033Z,2.25
2022-08-28T00:15:19.178Z,2.97
2022-08-28T00:17:46.035Z,2.72
2022-08-28T00:20:14.275Z,2.75
2022-08-28T00:22:42.369Z,2.50
2022-08-28T00:25:11.619Z,2.70
2022-08-28T00:27:53.706Z,2.45
2022-08-28T00:30:24.041Z,2.97
2022-08-28T00:32:51.461Z,2.67
2022-08-28T00:35:18.356Z,2.80
2022-08-28T00:37:46.755Z,2.78
2022-08-28T00:40:16.561Z,2.72
2022-08-28T00:42:47.286Z,2.85
2022-08-28T00:45:14.566Z,2.35
2022-08-28T00:47:41.409Z,2.65
2022-08-28T00:50:10.880Z,2.88
2022-08-28T00:52:38.226Z,2.53
2022-08-28T00:55:09.222Z,2.63
2022-08-28T00:57:40.357Z,2.25
2022-08-28T01:00:09.607Z,3.03
2022-08-28T01:02:36.694Z,2.78
2022-08-28T01:05:04.772Z,2.45
2022-08-28T01:07:31.553Z,2.40
2022-08-28T01:09:59.392Z,2.92
2022-08-28T01:12:30.355Z,2.92
2022-08-28T01:15:00.390Z,2.30
2022-08-28T01:17:28.965Z,2.40
2022-08-28T01:19:58.421Z,2.80
2022-08-28T01:22:31.223Z,2.25
2022-08-28T01:25:01.126Z,2.90
2022-08-28T01:27:27.914Z,2.70
2022-08-28T01:29:55.347Z,2.60
2022-08-28T01:32:33.079Z,2.53
2022-08-28T01:35:00.357Z,2.85
2022-08-28T01:37:27.127Z,2.35
2022-08-28T01:39:54.346Z,2.60
2022-08-28T01:42:22.608Z,2.60
2022-08-28T01:44:50.240Z,3.00
2022-08-28T01:47:16.991Z,2.30
2022-08-28T01:49:43.832Z,2.47
2022-08-28T01:52:11.705Z,2.28
2022-08-28T01:54:39.789Z,2.40
2022-08-28T01:57:07.498Z,2.20
2022-08-28T01:59:36.283Z,2.33
2022-08-28T02:02:04.021Z,2.60
2022-08-28T02:04:32.428Z,2.88
2022-08-28T02:06:59.489Z,2.28
2022-08-28T02:09:26.211Z,2.38
2022-08-28T02:11:54.977Z,2.40
2022-08-28T02:14:22.461Z,2.30
2022-08-28T02:16:51.276Z,2.30
2022-08-28T02:19:18.137Z,2.58
2022-08-28T02:21:44.810Z,2.25
2022-08-28T02:24:11.543Z,2.33
2022-08-28T02:26:38.483Z,1.98
2022-08-28T02:29:05.693Z,2.45
2022-08-28T02:31:32.862Z,2.42
2022-08-28T02:34:00.955Z,2.20
2022-08-28T02:36:27.751Z,2.58
2022-08-28T02:38:57.737Z,2.33
2022-08-28T02:41:24.850Z,2.25
2022-08-28T02:43:51.566Z,2.65
2022-08-28T02:46:18.281Z,2.30
2022-08-28T02:48:45.619Z,2.08
2022-08-28T02:51:14.724Z,2.50
2022-08-28T02:53:42.148Z,1.83
2022-08-28T02:56:09.956Z,1.90
2022-08-28T02:58:36.702Z,2.03
2022-08-28T03:01:05.032Z,2.05
2022-08-28T03:03:32.546Z,2.03
2022-08-28T03:05:59.911Z,2.30
2022-08-28T03:08:28.434Z,2.10
2022-08-28T03:10:55.226Z,2.17
2022-08-28T03:13:23.109Z,2.00
2022-08-28T03:15:55.611Z,2.33
2022-08-28T03:18:23.166Z,2.60
2022-08-28T03:20:49.897Z,2.35
2022-08-28T03:23:28.803Z,1.98
2022-08-28T03:25:59.361Z,2.60
2022-08-28T03:28:27.990Z,1.88
2022-08-28T03:30:54.898Z,2.10
2022-08-28T03:33:21.779Z,2.22
2022-08-28T03:35:48.859Z,2.08
2022-08-28T03:38:16.991Z,2.00
2022-08-28T03:40:46.307Z,2.83
2022-08-28T03:43:16.418Z,2.25
2022-08-28T03:45:52.150Z,2.20
2022-08-28T03:48:20.121Z,2.13
2022-08-28T03:50:47.418Z,2.08
2022-08-28T03:53:15.887Z,2.03
2022-08-28T03:55:43.050Z,2.50
2022-08-28T03:58:09.869Z,2.30
2022-08-28T04:00:46.976Z,2.72
2022-08-28T04:03:14.209Z,2.33
2022-08-28T04:05:41.643Z,2.25
2022-08-28T04:08:08.550Z,2.45
2022-08-28T04:10:35.878Z,1.98
2022-08-28T04:13:03.328Z,2.30
2022-08-28T04:15:30.144Z,2.42
2022-08-28T04:17:58.811Z,2.67
2022-08-28T04:20:25.540Z,2.60
2022-08-28T04:22:55.030Z,2.20
2022-08-28T04:25:22.397Z,2.50
2022-08-28T04:27:49.230Z,2.58
2022-08-28T04:30:16.280Z,2.50
2022-08-28T04:32:43.062Z,2.67
2022-08-28T04:35:13.684Z,2.60
2022-08-28T04:37:41.168Z,2.53
2022-08-28T04:40:10.866Z,2.65
2022-08-28T04:42:38.380Z,2.38
2022-08-28T04:45:06.344Z,3.15
2022-08-28T04:47:35.398Z,3.17
2022-08-28T04:50:02.510Z,3.22
2022-08-28T04:52:30.599Z,2.90
2022-08-28T04:54:57.700Z,2.58
2022-08-28T04:57:24.535Z,3.22
2022-08-28T04:59:51.245Z,2.70
2022-08-28T05:02:17.972Z,3.03
2022-08-28T05:04:44.773Z,3.22
2022-08-28T05:07:11.538Z,3.60
2022-08-28T05:09:39.663Z,2.90
2022-08-28T05:12:06.687Z,3.33
2022-08-28T05:14:33.455Z,4.22
2022-08-28T05:17:00.207Z,3.13
2022-08-28T05:19:27.893Z,3.00
2022-08-28T05:21:55.112Z,3.08
2022-08-28T05:24:22.475Z,3.30
2022-08-28T05:26:50.734Z,3.47
2022-08-28T05:29:17.679Z,3.00
2022-08-28T05:31:44.811Z,4.05
2022-08-28T05:34:13.154Z,4.45
2022-08-28T05:36:40.023Z,4.32
2022-08-28T05:39:09.658Z,3.47
2022-08-28T05:41:41.424Z,4.00
2022-08-28T05:44:11.502Z,3.95
2022-08-28T05:46:40.546Z,4.15
2022-08-28T05:49:09.976Z,3.72
2022-08-28T05:51:40.177Z,4.40
2022-08-28T05:54:07.062Z,4.30
2022-08-28T05:56:36.327Z,3.60
2022-08-28T05:59:04.280Z,3.75
2022-08-28T06:01:34.512Z,3.50
2022-08-28T06:04:03.607Z,3.58
2022-08-28T06:06:34.239Z,3.33
2022-08-28T06:09:02.713Z,3.20
2022-08-28T06:11:30.861Z,3.28
2022-08-28T06:13:58.629Z,3.42
2022-08-28T06:16:25.526Z,2.80
2022-08-28T06:18:53.694Z,2.70
2022-08-28T06:21:20.703Z,2.88
2022-08-28T06:23:47.458Z,2.28
2022-08-28T06:26:14.161Z,2.80
2022-08-28T06:28:40.877Z,2.53
2022-08-28T06:31:24.540Z,2.35
2022-08-28T06:33:54.427Z,2.40
2022-08-28T06:36:21.285Z,2.10
2022-08-28T06:38:48.000Z,2.35
2022-08-28T06:41:15.716Z,2.92
2022-08-28T06:43:42.853Z,2.45
2022-08-28T06:46:09.698Z,2.55
2022-08-28T06:48:36.538Z,3.10
2022-08-28T06:51:05.861Z,1.98
2022-08-28T06:53:33.465Z,2.33
2022-08-28T06:56:02.451Z,2.47
2022-08-28T06:58:29.741Z,2.47
2022-08-28T07:01:06.113Z,2.30
2022-08-28T07:03:33.276Z,2.58
2022-08-28T07:06:01.562Z,2.08
2022-08-28T07:08:30.043Z,1.90
2022-08-28T07:10:56.886Z,2.03
2022-08-28T07:13:23.594Z,1.83
2022-08-28T07:15:50.965Z,2.10
2022-08-28T07:18:17.939Z,1.73
2022-08-28T07:20:45.455Z,1.80
2022-08-28T07:23:12.361Z,1.50
2022-08-28T07:25:41.846Z,1.48
2022-08-28T07:28:08.883Z,1.75
2022-08-28T07:30:35.842Z,1.23
2022-08-28T07:33:02.718Z,1.60
2022-08-28T07:35:29.475Z,1.30
2022-08-28T07:37:56.317Z,2.08
2022-08-28T07:40:23.142Z,1.75
2022-08-28T07:43:09.990Z,1.50
2022-08-28T07:45:36.847Z,1.40
2022-08-28T07:48:07.495Z,1.33
2022-08-28T07:50:36.243Z,1.40
2022-08-28T07:53:04.522Z,1.67
2022-08-28T07:55:31.794Z,1.55
2022-08-28T07:58:00.279Z,1.60
2022-08-28T08:00:27.041Z,1.40
2022-08-28T08:02:53.795Z,1.10
2022-08-28T08:05:21.033Z,1.35
2022-08-28T08:07:47.827Z,1.20
2022-08-28T08:10:15.033Z,1.50
2022-08-28T08:12:47.152Z,1.38
2022-08-28T08:15:15.357Z,1.23
2022-08-28T08:17:43.233Z,1.33
2022-08-28T08:20:10.891Z,1.30
2022-08-28T08:22:37.741Z,1.60
2022-08-28T08:25:05.517Z,1.20
2022-08-28T08:27:32.964Z,1.27
2022-08-28T08:29:59.860Z,1.05
2022-08-28T08:32:28.059Z,1.17
2022-08-28T08:34:59.412Z,1.13
2022-08-28T08:37:26.126Z,1.05
2022-08-28T08:39:53.815Z,1.08
2022-08-28T08:42:24.087Z,1.30
2022-08-28T08:44:52.077Z,1.00
2022-08-28T08:47:22.409Z,0.90
2022-08-28T08:49:54.371Z,1.08
2022-08-28T08:52:45.854Z,0.85
2022-08-28T08:55:21.257Z,0.95
2022-08-28T08:57:53.815Z,1.10
2022-08-28T09:00:20.771Z,0.90
2022-08-28T09:02:53.504Z,1.23
2022-08-28T09:05:25.836Z,0.73
2022-08-28T09:07:58.462Z,0.90
2022-08-28T09:10:40.936Z,0.95
2022-08-28T09:13:12.650Z,1.52
2022-08-28T09:15:42.657Z,0.88
2022-08-28T09:18:18.031Z,1.15
2022-08-28T09:20:49.753Z,0.90
2022-08-28T09:23:16.638Z,2.65
2022-08-28T09:25:52.231Z,1.00
2022-08-28T09:28:22.772Z,0.90
2022-08-28T09:30:56.335Z,1.10
2022-08-28T09:33:35.180Z,0.93
2022-08-28T09:36:26.509Z,0.93
2022-08-28T09:39:11.528Z,0.98
2022-08-28T09:41:59.891Z,1.20
2022-08-28T09:44:26.712Z,1.13
2022-08-28T09:46:53.635Z,1.23
2022-08-28T09:49:27.388Z,1.15
2022-08-28T09:51:56.565Z,0.90
2022-08-28T09:54:27.918Z,1.05
2022-08-28T09:56:55.165Z,0.93
2022-08-28T09:59:24.289Z,1.00
2022-08-28T10:02:03.822Z,0.93
2022-08-28T10:04:45.791Z,0.90
2022-08-28T10:07:17.383Z,0.88
2022-08-28T10:09:51.476Z,0.95
2022-08-28T10:12:29.832Z,0.80
2022-08-28T10:15:01.162Z,0.90
2022-08-28T10:17:34.696Z,0.90
2022-08-28T10:20:06.803Z,0.95
2022-08-28T10:22:42.117Z,0.70
2022-08-28T10:25:16.714Z,0.85
2022-08-28T10:27:55.446Z,0.82
2022-08-28T10:30:24.411Z,0.80
2022-08-28T10:33:12.760Z,0.88
2022-08-28T10:35:46.871Z,0.77
2022-08-28T10:38:18.166Z,0.90
2022-08-28T10:40:52.010Z,0.80
2022-08-28T10:43:22.335Z,1.13
2022-08-28T10:45:49.628Z,0.90
2022-08-28T10:48:24.812Z,0.70
2022-08-28T10:53:24.959Z,0.88
2022-08-28T10:55:56.643Z,1.05
2022-08-28T10:58:26.227Z,1.00
2022-08-28T11:00:55.452Z,0.90
2022-08-28T11:03:34.283Z,0.82
2022-08-28T11:06:04.233Z,1.02
2022-08-28T11:08:34.010Z,0.90
2022-08-28T11:11:01.928Z,0.98
2022-08-28T11:13:47.460Z,1.10
2022-08-28T11:19:09.353Z,0.75
2022-08-28T11:21:41.629Z,0.98
2022-08-28T11:24:18.571Z,1.02
2022-08-28T11:26:52.314Z,1.00
2022-08-28T11:29:52.705Z,0.80
2022-08-28T11:32:38.148Z,0.65
2022-08-28T11:35:38.178Z,0.95
2022-08-28T11:38:05.421Z,1.10
2022-08-28T11:40:52.610Z,1.00
2022-08-28T11:43:38.829Z,0.73
2022-08-28T11:46:11.998Z,0.70
2022-08-28T11:48:49.775Z,0.70
2022-08-28T11:51:37.414Z,0.95
2022-08-28T11:54:16.814Z,0.82
2022-08-28T11:56:53.280Z,0.55
2022-08-28T11:59:36.742Z,0.65
2022-08-28T12:02:55.180Z,1.00
2022-08-28T12:05:53.589Z,0.80
2022-08-28T12:08:56.574Z,0.60
2022-08-28T12:11:57.380Z,0.80
2022-08-28T12:15:03.920Z,0.77
2022-08-28T12:17:48.429Z,0.63
2022-08-28T12:20:40.277Z,0.90
2022-08-28T12:23:41.964Z,0.77
2022-08-28T12:26:16.786Z,0.88
2022-08-28T12:28:50.469Z,0.70
2022-08-28T12:31:55.240Z,0.70
2022-08-28T12:34:30.486Z,0.70
2022-08-28T12:36:57.781Z,0.80
2022-08-28T12:39:24.896Z,0.80
2022-08-28T12:41:51.667Z,0.73
2022-08-28T12:44:23.812Z,0.70
2022-08-28T12:46:50.657Z,0.95
2022-08-28T12:49:32.226Z,0.70
2022-08-28T12:52:12.147Z,0.60
2022-08-28T12:54:43.941Z,0.70
2022-08-28T12:57:13.142Z,0.77
2022-08-28T12:59:43.069Z,0.68
2022-08-28T13:02:19.432Z,0.70
2022-08-28T13:04:53.442Z,0.80
2022-08-28T13:07:26.925Z,0.68
2022-08-28T13:09:56.124Z,0.60
2022-08-28T13:12:54.829Z,0.68
2022-08-28T13:15:43.627Z,0.80
2022-08-28T13:18:10.850Z,0.80
2022-08-28T13:20:38.131Z,0.70
2022-08-28T13:23:05.369Z,0.52
2022-08-28T13:25:33.817Z,0.70
2022-08-28T13:28:03.098Z,0.70
2022-08-28T13:30:33.713Z,0.88
2022-08-28T13:33:02.183Z,0.80
2022-08-28T13:35:35.699Z,1.00
2022-08-28T13:38:03.665Z,0.75
2022-08-28T13:43:22.060Z,0.77
2022-08-28T13:45:51.306Z,0.75
2022-08-28T13:48:20.620Z,0.80
2022-08-28T13:50:50.157Z,1.30
2022-08-28T13:53:19.880Z,0.70
2022-08-28T13:55:47.901Z,0.82
2022-08-28T13:58:14.641Z,1.40
2022-08-28T14:00:43.734Z,0.80
2022-08-28T14:03:30.808Z,0.65
2022-08-28T14:05:57.542Z,1.23
2022-08-28T14:08:24.444Z,0.70
2022-08-28T14:10:51.178Z,0.98
2022-08-28T14:13:18.801Z,0.70
2022-08-28T14:15:46.504Z,0.90
2022-08-28T14:18:14.715Z,0.80
2022-08-28T14:20:41.446Z,0.90
2022-08-28T14:23:09.071Z,0.70
2022-08-28T14:25:41.447Z,1.00
2022-08-28T14:28:08.276Z,0.93
2022-08-28T14:30:35.031Z,0.95
2022-08-28T14:33:01.733Z,1.50
2022-08-28T14:35:29.944Z,0.80
2022-08-28T14:37:57.231Z,0.80
2022-08-28T14:40:24.061Z,0.70
2022-08-28T14:42:50.851Z,0.80
2022-08-28T14:45:17.651Z,0.95
2022-08-28T14:47:45.474Z,0.60
2022-08-28T14:50:12.486Z,0.63
2022-08-28T14:52:40.652Z,0.60
2022-08-28T14:55:08.211Z,0.70
2022-08-28T14:57:38.112Z,0.85
2022-08-28T15:00:06.660Z,0.55
2022-08-28T15:02:33.506Z,0.80
2022-08-28T15:05:00.470Z,0.82
2022-08-28T15:07:29.502Z,0.80
2022-08-28T15:09:57.643Z,0.80
2022-08-28T15:12:24.387Z,0.60
2022-08-28T15:14:57.187Z,0.50
2022-08-28T15:17:33.772Z,0.70
2022-08-28T15:20:01.482Z,0.68
2022-08-28T15:22:28.371Z,0.90
2022-08-28T15:24:55.694Z,0.80
2022-08-28T15:27:23.977Z,0.73
2022-08-28T15:29:50.854Z,0.73
2022-08-28T15:32:17.651Z,0.73
2022-08-28T15:34:44.465Z,0.73
2022-08-28T15:37:11.266Z,0.70
2022-08-28T15:39:59.165Z,0.52
2022-08-28T15:42:29.753Z,0.60
2022-08-28T15:44:57.090Z,0.65
2022-08-28T15:47:24.948Z,0.80
2022-08-28T15:49:54.988Z,0.90
2022-08-28T15:52:22.518Z,0.60
2022-08-28T15:54:49.698Z,0.70
2022-08-28T15:57:17.017Z,0.77
2022-08-28T15:59:49.441Z,0.70
2022-08-28T16:02:18.711Z,0.80
2022-08-28T16:04:45.851Z,1.00
2022-08-28T16:07:12.771Z,0.73
2022-08-28T16:09:39.532Z,0.80
2022-08-28T16:12:06.612Z,0.80
2022-08-28T16:14:33.700Z,0.75
2022-08-28T16:17:05.527Z,0.80
2022-08-28T16:19:37.173Z,0.77
2022-08-28T16:22:04.122Z,0.70
2022-08-28T16:24:30.940Z,0.70
2022-08-28T16:26:57.704Z,0.98
2022-08-28T16:29:24.439Z,12.52
2022-08-28T16:31:51.406Z,16.77
2022-08-28T16:34:20.366Z,1.30
2022-08-28T16:36:48.194Z,1.05
2022-08-28T16:39:15.319Z,0.80
2022-08-28T16:41:43.191Z,1.05
2022-08-28T16:44:09.999Z,0.80
2022-08-28T16:46:36.783Z,0.95
2022-08-28T16:49:03.852Z,0.65
2022-08-28T16:51:31.946Z,0.77
2022-08-28T16:53:58.798Z,1.00
2022-08-28T16:56:26.548Z,0.82
2022-08-28T16:58:53.498Z,0.93
2022-08-28T17:01:24.074Z,0.85
2022-08-28T17:03:52.015Z,0.70
2022-08-28T17:06:20.671Z,1.05
2022-08-28T17:08:52.261Z,1.00
2022-08-28T17:11:21.652Z,0.90
2022-08-28T17:13:51.001Z,0.88
2022-08-28T17:16:18.857Z,1.35
2022-08-28T17:18:48.001Z,2.95
2022-08-28T17:21:37.161Z,1.40
2022-08-28T17:24:06.849Z,0.98
2022-08-28T17:26:33.755Z,0.70
2022-08-28T17:29:00.593Z,0.80
2022-08-28T17:31:27.478Z,1.00
2022-08-28T17:33:54.384Z,0.88
2022-08-28T17:36:34.094Z,1.00
2022-08-28T17:39:01.857Z,0.90
2022-08-28T17:41:30.053Z,0.88
2022-08-28T17:43:56.909Z,0.90
2022-08-28T17:46:23.685Z,1.40
2022-08-28T17:48:55.766Z,0.88
2022-08-28T17:51:42.685Z,0.85
2022-08-28T17:54:10.233Z,1.23
2022-08-28T17:56:38.360Z,1.02
2022-08-28T17:59:05.585Z,1.10
2022-08-28T18:01:32.372Z,0.93
2022-08-28T18:03:59.207Z,1.00
2022-08-28T18:06:25.992Z,1.10
2022-08-28T18:08:52.961Z,0.95
2022-08-28T18:11:19.812Z,0.98
2022-08-28T18:13:48.329Z,1.30
2022-08-28T18:16:15.740Z,1.33
2022-08-28T18:18:42.943Z,1.00
2022-08-28T18:21:09.824Z,0.90
2022-08-28T18:23:36.910Z,0.77
2022-08-28T18:26:04.666Z,1.20
2022-08-28T18:28:32.821Z,1.00
2022-08-28T18:31:01.571Z,1.00
2022-08-28T18:33:29.624Z,1.00
2022-08-28T18:35:56.922Z,1.00
2022-08-28T18:38:27.828Z,0.90
2022-08-28T18:40:54.965Z,1.20
2022-08-28T18:43:22.606Z,1.02
2022-08-28T18:45:49.720Z,1.00
2022-08-28T18:48:19.201Z,1.20
2022-08-28T18:50:48.015Z,1.10
2022-08-28T18:53:16.054Z,1.00
2022-08-28T18:55:42.817Z,0.95
2022-08-28T18:58:10.398Z,1.10
2022-08-28T19:00:42.334Z,1.10
2022-08-28T19:03:09.407Z,1.20
2022-08-28T19:05:38.829Z,0.93
2022-08-28T19:08:06.167Z,0.93
2022-08-28T19:10:34.992Z,1.20
2022-08-28T19:13:02.557Z,1.30
2022-08-28T19:15:30.241Z,1.25
2022-08-28T19:17:57.686Z,1.08
2022-08-28T19:20:24.611Z,1.10
2022-08-28T19:22:52.738Z,1.00
2022-08-28T19:25:27.604Z,1.15
2022-08-28T19:27:58.757Z,1.00
2022-08-28T19:30:26.445Z,1.00
2022-08-28T19:32:53.316Z,1.02
2022-08-28T19:35:20.224Z,1.00
2022-08-28T19:37:52.661Z,1.00
2022-08-28T19:40:20.606Z,1.30
2022-08-28T19:42:48.074Z,1.02
2022-08-28T19:45:15.172Z,1.13
2022-08-28T19:47:42.270Z,1.05
2022-08-28T19:50:11.612Z,0.90
2022-08-28T19:52:38.923Z,1.00
2022-08-28T19:55:08.505Z,1.02
2022-08-28T19:57:35.488Z,0.90
2022-08-28T20:00:02.580Z,1.08
2022-08-28T20:02:29.591Z,1.35
2022-08-28T20:04:56.432Z,1.45
2022-08-28T20:07:24.977Z,1.15
2022-08-28T20:09:52.394Z,1.10
2022-08-28T20:12:20.561Z,1.48
2022-08-28T20:14:47.416Z,1.30
2022-08-28T20:17:14.244Z,1.25
2022-08-28T20:19:41.371Z,1.25
2022-08-28T20:22:08.324Z,1.20
2022-08-28T20:24:35.118Z,1.40
2022-08-28T20:27:01.940Z,1.02
2022-08-28T20:29:30.174Z,1.10
2022-08-28T20:31:57.120Z,1.30
2022-08-28T20:34:23.908Z,1.20
2022-08-28T20:36:50.777Z,1.38
2022-08-28T20:39:18.113Z,1.20
2022-08-28T20:41:46.041Z,1.35
2022-08-28T20:44:15.533Z,1.77
2022-08-28T20:46:43.889Z,1.48
2022-08-28T20:49:17.805Z,1.20
2022-08-28T20:51:54.425Z,1.38
2022-08-28T20:54:22.231Z,1.25
2022-08-28T20:56:50.674Z,1.38
2022-08-28T20:59:17.458Z,1.23
2022-08-28T21:01:45.589Z,1.33
2022-08-28T21:04:12.425Z,1.20
2022-08-28T21:06:39.230Z,1.30
2022-08-28T21:09:06.013Z,1.30
2022-08-28T21:11:32.814Z,1.20
2022-08-28T21:13:59.624Z,1.30
2022-08-28T21:16:26.435Z,1.20
2022-08-28T21:19:14.543Z,1.20
2022-08-28T21:21:42.286Z,1.30
2022-08-28T21:24:11.526Z,1.10
2022-08-28T21:26:40.418Z,1.33
2022-08-28T21:29:09.637Z,1.40
2022-08-28T21:31:36.904Z,1.27
2022-08-28T21:34:06.573Z,1.40
2022-08-28T21:36:33.371Z,1.30
2022-08-28T21:39:00.097Z,1.20
2022-08-28T21:41:26.824Z,1.30
2022-08-28T21:43:55.555Z,1.33
2022-08-28T21:46:22.563Z,1.70
2022-08-28T21:48:50.126Z,1.45
2022-08-28T21:51:18.805Z,1.50
2022-08-28T21:53:45.769Z,1.42
2022-08-28T21:56:16.319Z,1.35
2022-08-28T21:58:43.343Z,1.30
2022-08-28T22:01:14.546Z,1.30
2022-08-28T22:03:42.509Z,1.40
2022-08-28T22:06:10.766Z,1.55
2022-08-28T22:08:39.530Z,1.35
2022-08-28T22:11:06.423Z,1.40
2022-08-28T22:13:33.164Z,1.30
2022-08-28T22:15:59.959Z,1.30
2022-08-28T22:18:32.116Z,1.38
2022-08-28T22:21:20.404Z,1.42
2022-08-28T22:23:48.530Z,1.40
2022-08-28T22:26:16.925Z,1.60
2022-08-28T22:28:43.761Z,1.33
2022-08-28T22:31:10.462Z,1.73
2022-08-28T22:33:37.317Z,1.77
2022-08-28T22:36:04.676Z,1.63
2022-08-28T22:38:31.447Z,1.50
2022-08-28T22:40:59.538Z,1.70
2022-08-28T22:43:26.827Z,1.50
2022-08-28T22:45:53.634Z,1.88
2022-08-28T22:48:20.447Z,2.00
2022-08-28T22:50:48.054Z,1.65
2022-08-28T22:53:17.397Z,1.70
2022-08-28T22:55:44.483Z,1.13
2022-08-28T22:58:13.067Z,1.52
2022-08-28T23:00:40.675Z,2.47
2022-08-28T23:03:07.888Z,1.77
2022-08-28T23:05:34.857Z,1.80
2022-08-28T23:08:01.642Z,1.70
2022-08-28T23:10:55.346Z,2.20
2022-08-28T23:13:16.730Z,1.80
2022-08-28T23:15:43.992Z,1.70
2022-08-28T23:18:10.993Z,2.20
2022-08-28T23:20:37.862Z,2.30
2022-08-28T23:23:04.595Z,2.15
2022-08-28T23:25:31.431Z,1.95
2022-08-28T23:27:58.205Z,1.75
2022-08-28T23:30:26.693Z,1.90
2022-08-28T23:32:53.517Z,1.70
2022-08-28T23:35:20.604Z,1.73
2022-08-28T23:37:52.013Z,2.17
2022-08-28T23:40:21.765Z,2.03
2022-08-28T23:42:49.085Z,1.75
2022-08-28T23:45:16.982Z,1.67
2022-08-28T23:47:45.722Z,2.05
2022-08-28T23:50:15.974Z,1.83
2022-08-28T23:52:43.062Z,1.55
2022-08-28T23:55:11.904Z,1.70
2022-08-28T23:57:38.750Z,1.48
